sensor_id;sensor_type;location;lat;lon;timestamp;temperature;humidity
22968;DHT22;11650;48.106;-1.696;2023-04-25T00:02:13;8.40;99.90
22968;DHT22;11650;48.106;-1.696;2023-04-25T00:04:39;8.40;99.90
22968;DHT22;11650;48.106;-1.696;2023-04-25T00:07:05;8.40;99.90
22968;DHT22;11650;48.106;-1.696;2023-04-25T00:09:31;8.40;99.90
22968;DHT22;11650;48.106;-1.696;2023-04-25T00:11:57;8.40;99.90
22968;DHT22;11650;48.106;-1.696;2023-04-25T00:14:23;8.40;99.90
22968;DHT22;11650;48.106;-1.696;2023-04-25T00:16:48;8.30;99.90
22968;DHT22;11650;48.106;-1.696;2023-04-25T00:19:17;8.20;99.90
22968;DHT22;11650;48.106;-1.696;2023-04-25T00:21:42;8.20;99.90
22968;DHT22;11650;48.106;-1.696;2023-04-25T00:24:11;8.20;99.90
22968;DHT22;11650;48.106;-1.696;2023-04-25T00:26:37;8.20;99.90
22968;DHT22;11650;48.106;-1.696;2023-04-25T00:29:03;8.20;99.90
22968;DHT22;11650;48.106;-1.696;2023-04-25T00:31:28;8.20;99.90
22968;DHT22;11650;48.106;-1.696;2023-04-25T00:33:55;8.20;99.90
22968;DHT22;11650;48.106;-1.696;2023-04-25T00:36:20;8.20;99.90
22968;DHT22;11650;48.106;-1.696;2023-04-25T00:38:46;8.30;99.90
22968;DHT22;11650;48.106;-1.696;2023-04-25T00:41:12;8.20;99.90
22968;DHT22;11650;48.106;-1.696;2023-04-25T00:43:38;8.10;99.90
22968;DHT22;11650;48.106;-1.696;2023-04-25T00:46:05;8.10;99.90
22968;DHT22;11650;48.106;-1.696;2023-04-25T00:48:30;8.10;99.90
22968;DHT22;11650;48.106;-1.696;2023-04-25T00:50:59;8.10;99.90
22968;DHT22;11650;48.106;-1.696;2023-04-25T00:53:27;8.10;99.90
22968;DHT22;11650;48.106;-1.696;2023-04-25T00:55:53;8.10;99.90
22968;DHT22;11650;48.106;-1.696;2023-04-25T00:58:20;8.00;99.90
22968;DHT22;11650;48.106;-1.696;2023-04-25T01:00:47;8.00;99.90
22968;DHT22;11650;48.106;-1.696;2023-04-25T01:03:14;7.90;99.90
22968;DHT22;11650;48.106;-1.696;2023-04-25T01:05:42;7.90;99.90
22968;DHT22;11650;48.106;-1.696;2023-04-25T01:08:08;7.90;99.90
22968;DHT22;11650;48.106;-1.696;2023-04-25T01:10:33;7.90;99.90
22968;DHT22;11650;48.106;-1.696;2023-04-25T01:12:59;7.90;99.90
22968;DHT22;11650;48.106;-1.696;2023-04-25T01:15:25;7.90;99.90
22968;DHT22;11650;48.106;-1.696;2023-04-25T01:17:51;7.80;99.90
22968;DHT22;11650;48.106;-1.696;2023-04-25T01:20:16;7.80;99.90
22968;DHT22;11650;48.106;-1.696;2023-04-25T01:22:43;7.80;99.90
22968;DHT22;11650;48.106;-1.696;2023-04-25T01:25:08;7.80;99.90
22968;DHT22;11650;48.106;-1.696;2023-04-25T01:27:36;7.80;99.90
22968;DHT22;11650;48.106;-1.696;2023-04-25T01:30:03;7.80;99.90
22968;DHT22;11650;48.106;-1.696;2023-04-25T01:32:30;7.70;99.90
22968;DHT22;11650;48.106;-1.696;2023-04-25T01:35:04;7.70;99.90
22968;DHT22;11650;48.106;-1.696;2023-04-25T01:37:38;7.70;99.90
22968;DHT22;11650;48.106;-1.696;2023-04-25T01:40:04;7.70;99.90
22968;DHT22;11650;48.106;-1.696;2023-04-25T01:42:32;7.60;99.90
22968;DHT22;11650;48.106;-1.696;2023-04-25T01:44:58;7.60;99.90
22968;DHT22;11650;48.106;-1.696;2023-04-25T01:47:23;7.60;99.90
22968;DHT22;11650;48.106;-1.696;2023-04-25T01:49:49;7.70;99.90
22968;DHT22;11650;48.106;-1.696;2023-04-25T01:52:15;7.60;99.90
22968;DHT22;11650;48.106;-1.696;2023-04-25T01:54:41;7.50;99.90
22968;DHT22;11650;48.106;-1.696;2023-04-25T01:57:10;7.50;99.90
22968;DHT22;11650;48.106;-1.696;2023-04-25T01:59:36;7.50;99.90
22968;DHT22;11650;48.106;-1.696;2023-04-25T02:02:02;7.40;99.90
22968;DHT22;11650;48.106;-1.696;2023-04-25T02:04:29;7.40;99.90
22968;DHT22;11650;48.106;-1.696;2023-04-25T02:06:55;7.30;99.90
22968;DHT22;11650;48.106;-1.696;2023-04-25T02:09:21;7.30;99.90
22968;DHT22;11650;48.106;-1.696;2023-04-25T02:11:47;7.30;99.90
22968;DHT22;11650;48.106;-1.696;2023-04-25T02:14:13;7.30;99.90
22968;DHT22;11650;48.106;-1.696;2023-04-25T02:16:38;7.20;99.90
22968;DHT22;11650;48.106;-1.696;2023-04-25T02:19:05;7.20;99.90
22968;DHT22;11650;48.106;-1.696;2023-04-25T02:21:31;7.20;99.90
22968;DHT22;11650;48.106;-1.696;2023-04-25T02:23:57;7.30;99.90
22968;DHT22;11650;48.106;-1.696;2023-04-25T02:26:23;7.20;99.90
22968;DHT22;11650;48.106;-1.696;2023-04-25T02:28:50;7.10;99.90
22968;DHT22;11650;48.106;-1.696;2023-04-25T02:31:16;7.20;99.90
22968;DHT22;11650;48.106;-1.696;2023-04-25T02:33:42;7.10;99.90
22968;DHT22;11650;48.106;-1.696;2023-04-25T02:36:07;7.10;99.90
22968;DHT22;11650;48.106;-1.696;2023-04-25T02:38:33;7.10;99.90
22968;DHT22;11650;48.106;-1.696;2023-04-25T02:40:59;7.00;99.90
22968;DHT22;11650;48.106;-1.696;2023-04-25T02:43:24;7.00;99.90
22968;DHT22;11650;48.106;-1.696;2023-04-25T02:45:50;7.00;99.90
22968;DHT22;11650;48.106;-1.696;2023-04-25T02:48:16;7.00;99.90
22968;DHT22;11650;48.106;-1.696;2023-04-25T02:50:41;7.00;99.90
22968;DHT22;11650;48.106;-1.696;2023-04-25T02:53:07;7.00;99.90
22968;DHT22;11650;48.106;-1.696;2023-04-25T02:55:33;6.90;99.90
22968;DHT22;11650;48.106;-1.696;2023-04-25T02:57:59;6.90;99.90
22968;DHT22;11650;48.106;-1.696;2023-04-25T03:00:24;6.90;99.90
22968;DHT22;11650;48.106;-1.696;2023-04-25T03:02:50;6.90;99.90
22968;DHT22;11650;48.106;-1.696;2023-04-25T03:05:16;6.90;99.90
22968;DHT22;11650;48.106;-1.696;2023-04-25T03:07:42;7.00;99.90
22968;DHT22;11650;48.106;-1.696;2023-04-25T03:10:09;6.90;99.90
22968;DHT22;11650;48.106;-1.696;2023-04-25T03:12:35;6.90;99.90
22968;DHT22;11650;48.106;-1.696;2023-04-25T03:15:01;6.90;99.90
22968;DHT22;11650;48.106;-1.696;2023-04-25T03:17:27;6.90;99.90
22968;DHT22;11650;48.106;-1.696;2023-04-25T03:19:53;6.80;99.90
22968;DHT22;11650;48.106;-1.696;2023-04-25T03:22:18;6.90;99.90
22968;DHT22;11650;48.106;-1.696;2023-04-25T03:24:44;6.90;99.90
22968;DHT22;11650;48.106;-1.696;2023-04-25T03:27:10;6.90;99.90
22968;DHT22;11650;48.106;-1.696;2023-04-25T03:29:35;6.90;99.90
22968;DHT22;11650;48.106;-1.696;2023-04-25T03:32:01;6.90;99.90
22968;DHT22;11650;48.106;-1.696;2023-04-25T03:34:27;6.80;99.90
22968;DHT22;11650;48.106;-1.696;2023-04-25T03:36:53;6.80;99.90
22968;DHT22;11650;48.106;-1.696;2023-04-25T03:39:19;6.80;99.90
22968;DHT22;11650;48.106;-1.696;2023-04-25T03:41:44;6.80;99.90
22968;DHT22;11650;48.106;-1.696;2023-04-25T03:44:10;6.70;99.90
22968;DHT22;11650;48.106;-1.696;2023-04-25T03:46:36;6.80;99.90
22968;DHT22;11650;48.106;-1.696;2023-04-25T03:49:01;6.70;99.90
22968;DHT22;11650;48.106;-1.696;2023-04-25T03:51:27;6.70;99.90
22968;DHT22;11650;48.106;-1.696;2023-04-25T03:53:52;6.70;99.90
22968;DHT22;11650;48.106;-1.696;2023-04-25T03:56:18;6.70;99.90
22968;DHT22;11650;48.106;-1.696;2023-04-25T03:58:44;6.70;99.90
22968;DHT22;11650;48.106;-1.696;2023-04-25T04:01:10;6.70;99.90
22968;DHT22;11650;48.106;-1.696;2023-04-25T04:03:36;6.70;99.90
22968;DHT22;11650;48.106;-1.696;2023-04-25T04:06:03;6.70;99.90
22968;DHT22;11650;48.106;-1.696;2023-04-25T04:08:29;6.70;99.90
22968;DHT22;11650;48.106;-1.696;2023-04-25T04:10:56;6.70;99.90
22968;DHT22;11650;48.106;-1.696;2023-04-25T04:13:22;6.70;99.90
22968;DHT22;11650;48.106;-1.696;2023-04-25T04:15:47;6.70;99.90
22968;DHT22;11650;48.106;-1.696;2023-04-25T04:18:13;6.60;99.90
22968;DHT22;11650;48.106;-1.696;2023-04-25T04:20:38;6.70;99.90
22968;DHT22;11650;48.106;-1.696;2023-04-25T04:23:04;6.60;99.90
22968;DHT22;11650;48.106;-1.696;2023-04-25T04:25:31;6.60;99.90
22968;DHT22;11650;48.106;-1.696;2023-04-25T04:27:56;6.70;99.90
22968;DHT22;11650;48.106;-1.696;2023-04-25T04:30:23;6.60;99.90
22968;DHT22;11650;48.106;-1.696;2023-04-25T04:32:50;6.60;99.90
22968;DHT22;11650;48.106;-1.696;2023-04-25T04:35:16;6.60;99.90
22968;DHT22;11650;48.106;-1.696;2023-04-25T04:37:41;6.60;99.90
22968;DHT22;11650;48.106;-1.696;2023-04-25T04:40:07;6.60;99.90
22968;DHT22;11650;48.106;-1.696;2023-04-25T04:42:33;6.60;99.90
22968;DHT22;11650;48.106;-1.696;2023-04-25T04:44:59;6.70;99.90
22968;DHT22;11650;48.106;-1.696;2023-04-25T04:47:27;6.70;99.90
22968;DHT22;11650;48.106;-1.696;2023-04-25T04:49:56;6.80;99.90
22968;DHT22;11650;48.106;-1.696;2023-04-25T04:52:22;6.80;99.90
22968;DHT22;11650;48.106;-1.696;2023-04-25T04:54:47;6.60;99.90
22968;DHT22;11650;48.106;-1.696;2023-04-25T04:57:13;6.60;99.90
22968;DHT22;11650;48.106;-1.696;2023-04-25T04:59:38;6.60;99.90
22968;DHT22;11650;48.106;-1.696;2023-04-25T05:02:04;6.60;99.90
22968;DHT22;11650;48.106;-1.696;2023-04-25T05:04:30;6.70;99.90
22968;DHT22;11650;48.106;-1.696;2023-04-25T05:06:55;6.70;99.90
22968;DHT22;11650;48.106;-1.696;2023-04-25T05:09:21;6.70;99.90
22968;DHT22;11650;48.106;-1.696;2023-04-25T05:11:51;6.60;99.90
22968;DHT22;11650;48.106;-1.696;2023-04-25T05:14:17;6.60;99.90
22968;DHT22;11650;48.106;-1.696;2023-04-25T05:16:43;6.60;99.90
22968;DHT22;11650;48.106;-1.696;2023-04-25T05:19:09;6.60;99.90
22968;DHT22;11650;48.106;-1.696;2023-04-25T05:21:34;6.60;99.90
22968;DHT22;11650;48.106;-1.696;2023-04-25T05:24:01;6.60;99.90
22968;DHT22;11650;48.106;-1.696;2023-04-25T05:26:26;6.60;99.90
22968;DHT22;11650;48.106;-1.696;2023-04-25T05:28:56;6.70;99.90
22968;DHT22;11650;48.106;-1.696;2023-04-25T05:31:22;6.70;99.90
22968;DHT22;11650;48.106;-1.696;2023-04-25T05:33:48;6.80;99.90
22968;DHT22;11650;48.106;-1.696;2023-04-25T05:36:13;6.80;99.90
22968;DHT22;11650;48.106;-1.696;2023-04-25T05:38:39;6.80;99.90
22968;DHT22;11650;48.106;-1.696;2023-04-25T05:41:05;6.80;99.90
22968;DHT22;11650;48.106;-1.696;2023-04-25T05:43:30;6.90;99.90
22968;DHT22;11650;48.106;-1.696;2023-04-25T05:45:56;6.90;99.90
22968;DHT22;11650;48.106;-1.696;2023-04-25T05:48:22;7.00;99.90
22968;DHT22;11650;48.106;-1.696;2023-04-25T05:50:47;7.00;99.90
22968;DHT22;11650;48.106;-1.696;2023-04-25T05:53:13;7.10;99.90
22968;DHT22;11650;48.106;-1.696;2023-04-25T05:55:38;7.20;99.90
22968;DHT22;11650;48.106;-1.696;2023-04-25T05:58:05;7.20;99.90
22968;DHT22;11650;48.106;-1.696;2023-04-25T06:00:32;7.20;99.90
22968;DHT22;11650;48.106;-1.696;2023-04-25T06:02:58;7.30;99.90
22968;DHT22;11650;48.106;-1.696;2023-04-25T06:05:23;7.40;99.90
22968;DHT22;11650;48.106;-1.696;2023-04-25T06:07:49;7.40;99.90
22968;DHT22;11650;48.106;-1.696;2023-04-25T06:10:15;7.50;99.90
22968;DHT22;11650;48.106;-1.696;2023-04-25T06:12:41;7.50;99.90
22968;DHT22;11650;48.106;-1.696;2023-04-25T06:15:07;7.50;99.90
22968;DHT22;11650;48.106;-1.696;2023-04-25T06:17:33;7.60;99.90
22968;DHT22;11650;48.106;-1.696;2023-04-25T06:19:58;7.70;99.90
22968;DHT22;11650;48.106;-1.696;2023-04-25T06:22:24;7.70;99.90
22968;DHT22;11650;48.106;-1.696;2023-04-25T06:24:50;7.70;99.90
22968;DHT22;11650;48.106;-1.696;2023-04-25T06:27:15;7.70;99.90
22968;DHT22;11650;48.106;-1.696;2023-04-25T06:29:41;7.80;99.90
22968;DHT22;11650;48.106;-1.696;2023-04-25T06:32:07;7.80;99.90
22968;DHT22;11650;48.106;-1.696;2023-04-25T06:34:32;7.90;99.90
22968;DHT22;11650;48.106;-1.696;2023-04-25T06:36:58;8.00;99.90
22968;DHT22;11650;48.106;-1.696;2023-04-25T06:39:23;8.10;99.90
22968;DHT22;11650;48.106;-1.696;2023-04-25T06:41:50;8.30;99.90
22968;DHT22;11650;48.106;-1.696;2023-04-25T06:44:16;8.70;99.90
22968;DHT22;11650;48.106;-1.696;2023-04-25T06:46:42;8.70;99.90
22968;DHT22;11650;48.106;-1.696;2023-04-25T06:49:07;8.80;99.90
22968;DHT22;11650;48.106;-1.696;2023-04-25T06:51:33;8.90;99.90
22968;DHT22;11650;48.106;-1.696;2023-04-25T06:53:59;9.00;99.90
22968;DHT22;11650;48.106;-1.696;2023-04-25T06:56:25;9.20;99.90
22968;DHT22;11650;48.106;-1.696;2023-04-25T06:58:50;9.30;99.90
22968;DHT22;11650;48.106;-1.696;2023-04-25T07:01:16;9.30;99.90
22968;DHT22;11650;48.106;-1.696;2023-04-25T07:03:42;9.50;99.90
22968;DHT22;11650;48.106;-1.696;2023-04-25T07:06:07;9.70;99.90
22968;DHT22;11650;48.106;-1.696;2023-04-25T07:08:33;9.70;99.90
22968;DHT22;11650;48.106;-1.696;2023-04-25T07:10:59;9.70;99.90
22968;DHT22;11650;48.106;-1.696;2023-04-25T07:13:24;9.80;99.90
22968;DHT22;11650;48.106;-1.696;2023-04-25T07:15:50;9.80;99.90
22968;DHT22;11650;48.106;-1.696;2023-04-25T07:18:16;9.80;99.90
22968;DHT22;11650;48.106;-1.696;2023-04-25T07:20:41;10.10;99.90
22968;DHT22;11650;48.106;-1.696;2023-04-25T07:23:07;10.20;99.90
22968;DHT22;11650;48.106;-1.696;2023-04-25T07:25:33;10.20;99.90
22968;DHT22;11650;48.106;-1.696;2023-04-25T07:27:58;10.20;99.90
22968;DHT22;11650;48.106;-1.696;2023-04-25T07:30:24;10.10;99.90
22968;DHT22;11650;48.106;-1.696;2023-04-25T07:32:50;10.10;99.90
22968;DHT22;11650;48.106;-1.696;2023-04-25T07:35:16;10.20;99.90
22968;DHT22;11650;48.106;-1.696;2023-04-25T07:37:42;10.30;99.90
22968;DHT22;11650;48.106;-1.696;2023-04-25T07:40:08;10.20;99.90
22968;DHT22;11650;48.106;-1.696;2023-04-25T07:42:35;10.30;99.90
22968;DHT22;11650;48.106;-1.696;2023-04-25T07:45:01;10.50;99.90
22968;DHT22;11650;48.106;-1.696;2023-04-25T07:47:27;10.60;99.90
22968;DHT22;11650;48.106;-1.696;2023-04-25T07:49:52;10.50;99.90
22968;DHT22;11650;48.106;-1.696;2023-04-25T07:52:18;10.80;99.90
22968;DHT22;11650;48.106;-1.696;2023-04-25T07:54:43;10.70;99.90
22968;DHT22;11650;48.106;-1.696;2023-04-25T07:57:10;11.00;99.90
22968;DHT22;11650;48.106;-1.696;2023-04-25T07:59:35;10.80;99.90
22968;DHT22;11650;48.106;-1.696;2023-04-25T08:02:01;10.80;99.90
22968;DHT22;11650;48.106;-1.696;2023-04-25T08:04:27;11.10;99.90
22968;DHT22;11650;48.106;-1.696;2023-04-25T08:06:53;11.30;99.90
22968;DHT22;11650;48.106;-1.696;2023-04-25T08:09:20;11.20;99.90
22968;DHT22;11650;48.106;-1.696;2023-04-25T08:11:45;11.10;99.90
22968;DHT22;11650;48.106;-1.696;2023-04-25T08:14:12;11.20;99.90
22968;DHT22;11650;48.106;-1.696;2023-04-25T08:16:38;11.30;99.90
22968;DHT22;11650;48.106;-1.696;2023-04-25T08:19:03;11.20;99.90
22968;DHT22;11650;48.106;-1.696;2023-04-25T08:21:30;11.20;99.90
22968;DHT22;11650;48.106;-1.696;2023-04-25T08:23:57;11.30;99.90
22968;DHT22;11650;48.106;-1.696;2023-04-25T08:26:24;11.30;99.90
22968;DHT22;11650;48.106;-1.696;2023-04-25T08:28:50;11.60;99.90
22968;DHT22;11650;48.106;-1.696;2023-04-25T08:31:16;11.70;99.90
22968;DHT22;11650;48.106;-1.696;2023-04-25T08:33:42;11.80;99.90
22968;DHT22;11650;48.106;-1.696;2023-04-25T08:36:09;11.70;99.90
22968;DHT22;11650;48.106;-1.696;2023-04-25T08:38:34;11.80;99.90
22968;DHT22;11650;48.106;-1.696;2023-04-25T08:41:00;11.70;99.90
22968;DHT22;11650;48.106;-1.696;2023-04-25T08:43:29;11.90;99.90
22968;DHT22;11650;48.106;-1.696;2023-04-25T08:45:59;11.90;99.90
22968;DHT22;11650;48.106;-1.696;2023-04-25T08:48:27;12.10;99.90
22968;DHT22;11650;48.106;-1.696;2023-04-25T08:50:54;12.40;99.90
22968;DHT22;11650;48.106;-1.696;2023-04-25T08:53:27;12.50;99.90
22968;DHT22;11650;48.106;-1.696;2023-04-25T08:55:57;12.60;99.90
22968;DHT22;11650;48.106;-1.696;2023-04-25T08:58:23;12.80;99.90
22968;DHT22;11650;48.106;-1.696;2023-04-25T09:00:50;12.60;99.90
22968;DHT22;11650;48.106;-1.696;2023-04-25T09:03:17;12.60;99.90
22968;DHT22;11650;48.106;-1.696;2023-04-25T09:05:43;12.70;99.90
22968;DHT22;11650;48.106;-1.696;2023-04-25T09:08:09;12.70;99.90
22968;DHT22;11650;48.106;-1.696;2023-04-25T09:10:35;12.60;99.90
22968;DHT22;11650;48.106;-1.696;2023-04-25T09:15:31;12.90;99.90
22968;DHT22;11650;48.106;-1.696;2023-04-25T09:17:58;13.10;99.90
22968;DHT22;11650;48.106;-1.696;2023-04-25T09:20:24;12.90;99.90
22968;DHT22;11650;48.106;-1.696;2023-04-25T09:23:04;13.00;99.90
22968;DHT22;11650;48.106;-1.696;2023-04-25T09:25:35;13.00;99.90
22968;DHT22;11650;48.106;-1.696;2023-04-25T09:28:05;12.60;99.90
22968;DHT22;11650;48.106;-1.696;2023-04-25T09:30:32;12.60;99.90
22968;DHT22;11650;48.106;-1.696;2023-04-25T09:33:07;12.80;99.90
22968;DHT22;11650;48.106;-1.696;2023-04-25T09:35:41;12.80;99.90
22968;DHT22;11650;48.106;-1.696;2023-04-25T09:38:12;13.00;99.90
22968;DHT22;11650;48.106;-1.696;2023-04-25T09:40:45;13.30;99.90
22968;DHT22;11650;48.106;-1.696;2023-04-25T09:43:23;13.50;99.90
22968;DHT22;11650;48.106;-1.696;2023-04-25T09:45:50;13.50;99.90
22968;DHT22;11650;48.106;-1.696;2023-04-25T09:48:21;13.30;99.90
22968;DHT22;11650;48.106;-1.696;2023-04-25T09:51:07;13.00;99.90
22968;DHT22;11650;48.106;-1.696;2023-04-25T09:53:36;13.10;99.90
22968;DHT22;11650;48.106;-1.696;2023-04-25T09:56:04;13.20;99.90
22968;DHT22;11650;48.106;-1.696;2023-04-25T09:58:31;13.50;99.90
22968;DHT22;11650;48.106;-1.696;2023-04-25T10:01:03;14.00;99.90
22968;DHT22;11650;48.106;-1.696;2023-04-25T10:03:33;14.00;99.90
22968;DHT22;11650;48.106;-1.696;2023-04-25T10:06:01;13.70;99.90
22968;DHT22;11650;48.106;-1.696;2023-04-25T10:08:34;13.50;99.90
22968;DHT22;11650;48.106;-1.696;2023-04-25T10:11:03;13.60;99.90
22968;DHT22;11650;48.106;-1.696;2023-04-25T10:13:32;13.70;99.90
22968;DHT22;11650;48.106;-1.696;2023-04-25T10:16:00;13.70;99.90
22968;DHT22;11650;48.106;-1.696;2023-04-25T10:18:27;13.90;99.90
22968;DHT22;11650;48.106;-1.696;2023-04-25T10:21:00;13.90;99.90
22968;DHT22;11650;48.106;-1.696;2023-04-25T10:23:27;13.80;99.90
22968;DHT22;11650;48.106;-1.696;2023-04-25T10:25:55;13.80;99.90
22968;DHT22;11650;48.106;-1.696;2023-04-25T10:28:21;14.00;99.90
22968;DHT22;11650;48.106;-1.696;2023-04-25T10:31:02;13.90;99.90
22968;DHT22;11650;48.106;-1.696;2023-04-25T10:33:36;13.90;99.90
22968;DHT22;11650;48.106;-1.696;2023-04-25T10:36:09;13.70;99.90
22968;DHT22;11650;48.106;-1.696;2023-04-25T10:38:36;14.00;99.90
22968;DHT22;11650;48.106;-1.696;2023-04-25T10:41:06;13.90;99.90
22968;DHT22;11650;48.106;-1.696;2023-04-25T10:43:34;14.10;99.90
22968;DHT22;11650;48.106;-1.696;2023-04-25T10:46:01;14.10;99.90
22968;DHT22;11650;48.106;-1.696;2023-04-25T10:48:29;14.30;99.90
22968;DHT22;11650;48.106;-1.696;2023-04-25T10:51:08;14.40;99.90
22968;DHT22;11650;48.106;-1.696;2023-04-25T10:53:34;14.80;99.90
22968;DHT22;11650;48.106;-1.696;2023-04-25T10:56:00;14.90;99.90
22968;DHT22;11650;48.106;-1.696;2023-04-25T10:58:34;15.20;99.90
22968;DHT22;11650;48.106;-1.696;2023-04-25T11:01:01;15.10;99.90
22968;DHT22;11650;48.106;-1.696;2023-04-25T11:03:27;15.10;99.90
22968;DHT22;11650;48.106;-1.696;2023-04-25T11:05:54;14.80;99.90
22968;DHT22;11650;48.106;-1.696;2023-04-25T11:08:32;14.90;99.90
22968;DHT22;11650;48.106;-1.696;2023-04-25T11:11:02;14.80;99.90
22968;DHT22;11650;48.106;-1.696;2023-04-25T11:13:31;14.90;99.90
22968;DHT22;11650;48.106;-1.696;2023-04-25T11:15:56;15.10;99.90
22968;DHT22;11650;48.106;-1.696;2023-04-25T11:18:26;14.90;99.90
22968;DHT22;11650;48.106;-1.696;2023-04-25T11:20:52;14.70;99.90
22968;DHT22;11650;48.106;-1.696;2023-04-25T11:23:18;14.70;99.90
22968;DHT22;11650;48.106;-1.696;2023-04-25T11:25:44;15.20;99.90
22968;DHT22;11650;48.106;-1.696;2023-04-25T11:28:10;15.50;99.90
22968;DHT22;11650;48.106;-1.696;2023-04-25T11:30:35;15.40;99.90
22968;DHT22;11650;48.106;-1.696;2023-04-25T11:33:01;15.20;99.90
22968;DHT22;11650;48.106;-1.696;2023-04-25T11:35:28;15.20;99.90
22968;DHT22;11650;48.106;-1.696;2023-04-25T11:37:54;15.40;99.90
22968;DHT22;11650;48.106;-1.696;2023-04-25T11:40:20;15.50;99.90
22968;DHT22;11650;48.106;-1.696;2023-04-25T11:42:46;15.50;99.90
22968;DHT22;11650;48.106;-1.696;2023-04-25T11:45:13;15.80;99.90
22968;DHT22;11650;48.106;-1.696;2023-04-25T11:47:39;16.20;99.90
22968;DHT22;11650;48.106;-1.696;2023-04-25T11:50:07;15.70;99.90
22968;DHT22;11650;48.106;-1.696;2023-04-25T11:52:41;15.70;99.90
22968;DHT22;11650;48.106;-1.696;2023-04-25T11:55:08;15.80;99.90
22968;DHT22;11650;48.106;-1.696;2023-04-25T11:57:34;15.80;99.90
22968;DHT22;11650;48.106;-1.696;2023-04-25T12:00:11;15.90;99.90
22968;DHT22;11650;48.106;-1.696;2023-04-25T12:02:42;16.30;99.90
22968;DHT22;11650;48.106;-1.696;2023-04-25T12:05:09;16.90;99.90
22968;DHT22;11650;48.106;-1.696;2023-04-25T12:07:35;16.40;99.90
22968;DHT22;11650;48.106;-1.696;2023-04-25T12:10:09;16.20;99.90
22968;DHT22;11650;48.106;-1.696;2023-04-25T12:12:36;15.90;99.90
22968;DHT22;11650;48.106;-1.696;2023-04-25T12:17:38;15.50;99.90
22968;DHT22;11650;48.106;-1.696;2023-04-25T12:20:15;15.60;99.90
22968;DHT22;11650;48.106;-1.696;2023-04-25T12:22:42;15.90;99.90
22968;DHT22;11650;48.106;-1.696;2023-04-25T12:25:13;16.00;99.90
22968;DHT22;11650;48.106;-1.696;2023-04-25T12:28:09;16.20;99.90
22968;DHT22;11650;48.106;-1.696;2023-04-25T12:31:00;16.00;99.90
22968;DHT22;11650;48.106;-1.696;2023-04-25T12:33:31;16.00;99.90
22968;DHT22;11650;48.106;-1.696;2023-04-25T12:35:58;16.10;99.90
22968;DHT22;11650;48.106;-1.696;2023-04-25T12:38:28;15.70;99.90
22968;DHT22;11650;48.106;-1.696;2023-04-25T12:40:59;15.70;99.90
22968;DHT22;11650;48.106;-1.696;2023-04-25T12:43:25;15.70;99.90
22968;DHT22;11650;48.106;-1.696;2023-04-25T12:45:53;15.70;99.90
22968;DHT22;11650;48.106;-1.696;2023-04-25T12:48:19;15.50;99.90
22968;DHT22;11650;48.106;-1.696;2023-04-25T12:50:46;15.30;99.90
22968;DHT22;11650;48.106;-1.696;2023-04-25T12:53:17;15.20;99.90
22968;DHT22;11650;48.106;-1.696;2023-04-25T12:55:44;15.20;99.90
22968;DHT22;11650;48.106;-1.696;2023-04-25T12:58:17;15.30;99.90
22968;DHT22;11650;48.106;-1.696;2023-04-25T13:00:43;15.60;99.90
22968;DHT22;11650;48.106;-1.696;2023-04-25T13:03:10;16.00;99.90
22968;DHT22;11650;48.106;-1.696;2023-04-25T13:05:38;16.50;99.90
22968;DHT22;11650;48.106;-1.696;2023-04-25T13:08:05;16.80;99.90
22968;DHT22;11650;48.106;-1.696;2023-04-25T13:10:30;17.70;99.90
22968;DHT22;11650;48.106;-1.696;2023-04-25T13:12:56;17.60;99.90
22968;DHT22;11650;48.106;-1.696;2023-04-25T13:15:22;17.60;99.90
22968;DHT22;11650;48.106;-1.696;2023-04-25T13:17:48;17.30;99.90
22968;DHT22;11650;48.106;-1.696;2023-04-25T13:20:14;17.30;99.90
22968;DHT22;11650;48.106;-1.696;2023-04-25T13:22:41;17.40;99.90
22968;DHT22;11650;48.106;-1.696;2023-04-25T13:25:08;17.60;99.90
22968;DHT22;11650;48.106;-1.696;2023-04-25T13:27:35;17.40;99.90
22968;DHT22;11650;48.106;-1.696;2023-04-25T13:30:01;17.60;99.90
22968;DHT22;11650;48.106;-1.696;2023-04-25T13:32:33;17.90;99.90
22968;DHT22;11650;48.106;-1.696;2023-04-25T13:34:59;18.40;99.90
22968;DHT22;11650;48.106;-1.696;2023-04-25T13:37:24;18.70;99.90
22968;DHT22;11650;48.106;-1.696;2023-04-25T13:39:50;18.20;99.90
22968;DHT22;11650;48.106;-1.696;2023-04-25T13:42:16;17.50;99.90
22968;DHT22;11650;48.106;-1.696;2023-04-25T13:44:42;17.50;99.90
22968;DHT22;11650;48.106;-1.696;2023-04-25T13:47:07;17.30;99.90
22968;DHT22;11650;48.106;-1.696;2023-04-25T13:49:33;17.80;99.90
22968;DHT22;11650;48.106;-1.696;2023-04-25T13:51:59;17.90;99.90
22968;DHT22;11650;48.106;-1.696;2023-04-25T13:54:24;18.30;99.90
22968;DHT22;11650;48.106;-1.696;2023-04-25T13:56:50;18.00;99.90
22968;DHT22;11650;48.106;-1.696;2023-04-25T13:59:17;18.90;99.90
22968;DHT22;11650;48.106;-1.696;2023-04-25T14:01:43;18.90;99.90
22968;DHT22;11650;48.106;-1.696;2023-04-25T14:04:08;19.30;99.90
22968;DHT22;11650;48.106;-1.696;2023-04-25T14:06:34;20.00;99.90
22968;DHT22;11650;48.106;-1.696;2023-04-25T14:09:00;19.60;99.90
22968;DHT22;11650;48.106;-1.696;2023-04-25T14:11:26;20.20;99.90
22968;DHT22;11650;48.106;-1.696;2023-04-25T14:13:52;20.30;99.90
22968;DHT22;11650;48.106;-1.696;2023-04-25T14:16:17;20.30;99.90
22968;DHT22;11650;48.106;-1.696;2023-04-25T14:18:43;19.90;99.90
22968;DHT22;11650;48.106;-1.696;2023-04-25T14:21:09;19.40;99.90
22968;DHT22;11650;48.106;-1.696;2023-04-25T14:23:35;18.80;99.90
22968;DHT22;11650;48.106;-1.696;2023-04-25T14:26:01;18.40;99.90
22968;DHT22;11650;48.106;-1.696;2023-04-25T14:28:27;18.10;99.90
22968;DHT22;11650;48.106;-1.696;2023-04-25T14:30:52;17.60;99.90
22968;DHT22;11650;48.106;-1.696;2023-04-25T14:33:18;17.60;99.90
22968;DHT22;11650;48.106;-1.696;2023-04-25T14:35:44;17.20;99.90
22968;DHT22;11650;48.106;-1.696;2023-04-25T14:38:09;17.30;99.90
22968;DHT22;11650;48.106;-1.696;2023-04-25T14:40:35;17.50;99.90
22968;DHT22;11650;48.106;-1.696;2023-04-25T14:43:02;17.40;99.90
22968;DHT22;11650;48.106;-1.696;2023-04-25T14:45:28;17.20;99.90
22968;DHT22;11650;48.106;-1.696;2023-04-25T14:47:57;17.10;99.90
22968;DHT22;11650;48.106;-1.696;2023-04-25T14:50:23;17.40;99.90
22968;DHT22;11650;48.106;-1.696;2023-04-25T14:52:50;17.20;99.90
22968;DHT22;11650;48.106;-1.696;2023-04-25T14:55:15;17.60;99.90
22968;DHT22;11650;48.106;-1.696;2023-04-25T14:57:41;17.60;99.90
22968;DHT22;11650;48.106;-1.696;2023-04-25T15:00:07;18.80;99.90
22968;DHT22;11650;48.106;-1.696;2023-04-25T15:02:35;19.20;99.90
22968;DHT22;11650;48.106;-1.696;2023-04-25T15:05:01;18.90;99.90
22968;DHT22;11650;48.106;-1.696;2023-04-25T15:07:27;18.80;99.90
22968;DHT22;11650;48.106;-1.696;2023-04-25T15:09:52;19.00;99.90
22968;DHT22;11650;48.106;-1.696;2023-04-25T15:12:19;19.20;99.90
22968;DHT22;11650;48.106;-1.696;2023-04-25T15:14:45;18.80;99.90
22968;DHT22;11650;48.106;-1.696;2023-04-25T15:17:11;18.60;99.90
22968;DHT22;11650;48.106;-1.696;2023-04-25T15:19:39;18.00;99.90
22968;DHT22;11650;48.106;-1.696;2023-04-25T15:22:05;17.60;99.90
22968;DHT22;11650;48.106;-1.696;2023-04-25T15:24:32;17.40;99.90
22968;DHT22;11650;48.106;-1.696;2023-04-25T15:26:58;17.00;99.90